createdAt,value
2023-12-22T00:00:42.276Z,6.30
2023-12-22T00:03:10.964Z,6.30
2023-12-22T00:05:39.023Z,6.20
2023-12-22T00:08:07.593Z,6.10
2023-12-22T00:10:35.938Z,6.10
2023-12-22T00:13:04.169Z,6.00
2023-12-22T00:15:32.355Z,6.10
2023-12-22T00:18:00.434Z,6.00
2023-12-22T00:20:28.521Z,6.00
2023-12-22T00:22:56.540Z,6.10
2023-12-22T00:25:24.648Z,6.10
2023-12-22T00:27:53.116Z,6.10
2023-12-22T00:30:46.438Z,6.10
2023-12-22T00:33:14.703Z,6.10
2023-12-22T00:35:42.730Z,6.10
2023-12-22T00:38:11.542Z,6.10
2023-12-22T00:40:39.531Z,6.10
2023-12-22T00:43:07.682Z,6.10
2023-12-22T00:45:35.728Z,6.10
2023-12-22T00:48:04.335Z,6.10
2023-12-22T00:50:32.536Z,6.10
2023-12-22T00:53:00.664Z,6.00
2023-12-22T00:55:28.902Z,6.00
2023-12-22T00:57:57.324Z,6.00
2023-12-22T01:00:25.601Z,5.80
2023-12-22T01:02:53.940Z,5.70
2023-12-22T01:05:22.164Z,5.80
2023-12-22T01:07:50.432Z,6.00
2023-12-22T01:10:18.920Z,6.00
2023-12-22T01:12:47.042Z,6.00
2023-12-22T01:15:15.146Z,6.00
2023-12-22T01:17:43.254Z,6.00
2023-12-22T01:20:11.981Z,5.90
2023-12-22T01:22:40.319Z,5.80
2023-12-22T01:25:08.478Z,5.80
2023-12-22T01:27:36.468Z,5.70
2023-12-22T01:30:05.245Z,5.60
2023-12-22T01:32:36.138Z,5.50
2023-12-22T01:35:11.334Z,5.20
2023-12-22T01:37:39.901Z,5.20
2023-12-22T01:40:08.906Z,5.20
2023-12-22T01:42:36.910Z,5.10
2023-12-22T01:45:05.244Z,5.10
2023-12-22T01:47:33.969Z,5.00
2023-12-22T01:50:02.789Z,5.00
2023-12-22T01:52:31.727Z,5.00
2023-12-22T01:54:59.971Z,5.10
2023-12-22T01:57:28.001Z,5.20
2023-12-22T01:59:58.223Z,5.40
2023-12-22T02:02:26.446Z,5.60
2023-12-22T02:04:55.631Z,5.60
2023-12-22T02:07:24.019Z,5.70
2023-12-22T02:09:52.098Z,5.70
2023-12-22T02:12:20.059Z,5.70
2023-12-22T02:14:48.256Z,5.70
2023-12-22T02:17:24.456Z,5.70
2023-12-22T02:19:52.763Z,5.70
2023-12-22T02:22:22.315Z,5.80
2023-12-22T02:24:50.369Z,5.70
2023-12-22T02:27:36.178Z,5.80
2023-12-22T02:30:15.437Z,5.90
2023-12-22T02:32:46.069Z,5.70
2023-12-22T02:35:18.782Z,5.70
2023-12-22T02:37:51.011Z,5.50
2023-12-22T02:40:20.699Z,5.50
2023-12-22T02:42:49.220Z,5.60
2023-12-22T02:45:19.587Z,5.60
2023-12-22T02:48:16.319Z,5.60
2023-12-22T02:50:44.373Z,5.60
2023-12-22T02:53:12.529Z,5.60
2023-12-22T02:55:40.595Z,5.60
2023-12-22T02:58:08.754Z,5.60
2023-12-22T03:00:36.862Z,5.70
2023-12-22T03:03:05.202Z,5.70
2023-12-22T03:05:33.553Z,5.80
2023-12-22T03:08:01.901Z,5.90
2023-12-22T03:10:31.442Z,5.80
2023-12-22T03:13:01.034Z,5.70
2023-12-22T03:15:29.156Z,5.60
2023-12-22T03:17:57.405Z,5.60
2023-12-22T03:20:25.410Z,5.60
2023-12-22T03:27:55.892Z,5.60
2023-12-22T03:30:24.081Z,5.50
2023-12-22T03:32:52.192Z,5.40
2023-12-22T03:35:20.191Z,5.30
2023-12-22T03:37:48.680Z,5.20
2023-12-22T03:40:17.115Z,5.10
2023-12-22T03:42:45.812Z,5.10
2023-12-22T03:45:13.963Z,5.20
2023-12-22T03:47:43.111Z,5.30
2023-12-22T03:50:11.235Z,5.30
2023-12-22T03:52:39.338Z,5.40
2023-12-22T03:55:07.753Z,5.50
2023-12-22T03:57:35.756Z,5.60
2023-12-22T04:00:05.512Z,5.60
2023-12-22T04:02:34.606Z,5.70
2023-12-22T04:05:02.927Z,5.70
2023-12-22T04:07:31.624Z,5.70
2023-12-22T04:10:00.473Z,5.70
2023-12-22T04:12:28.474Z,5.70
2023-12-22T04:14:56.571Z,5.70
2023-12-22T04:17:24.817Z,5.80
2023-12-22T04:19:53.975Z,5.90
2023-12-22T04:22:22.081Z,6.00
2023-12-22T04:24:50.113Z,6.10
2023-12-22T04:27:18.112Z,6.10
2023-12-22T04:29:46.049Z,6.10
2023-12-22T04:32:13.972Z,6.00
2023-12-22T04:34:42.392Z,6.00
2023-12-22T04:37:11.049Z,5.80
2023-12-22T04:39:39.314Z,5.70
2023-12-22T04:42:07.506Z,5.40
2023-12-22T04:44:35.833Z,5.10
2023-12-22T04:47:04.151Z,5.10
2023-12-22T04:49:32.270Z,5.00
2023-12-22T04:52:02.455Z,4.90
2023-12-22T04:54:31.589Z,4.80
2023-12-22T04:57:00.179Z,4.80
2023-12-22T04:59:28.286Z,4.80
2023-12-22T05:01:56.365Z,4.80
2023-12-22T05:04:24.582Z,4.80
2023-12-22T05:06:52.641Z,4.90
2023-12-22T05:09:20.605Z,4.80
2023-12-22T05:11:48.789Z,4.80
2023-12-22T05:14:16.884Z,4.80
2023-12-22T05:16:45.998Z,4.90
2023-12-22T05:19:14.015Z,5.00
2023-12-22T05:21:42.824Z,5.10
2023-12-22T05:24:11.120Z,5.20
2023-12-22T05:26:39.376Z,5.20
2023-12-22T05:29:09.537Z,5.30
2023-12-22T05:31:39.445Z,5.20
2023-12-22T05:34:07.477Z,5.20
2023-12-22T05:36:35.578Z,5.10
2023-12-22T05:39:03.665Z,5.00
2023-12-22T05:46:45.049Z,4.80
2023-12-22T05:49:13.474Z,4.80
2023-12-22T05:51:42.901Z,4.80
2023-12-22T05:54:12.647Z,4.80
2023-12-22T05:56:41.079Z,4.70
2023-12-22T05:59:09.241Z,4.70
2023-12-22T06:01:45.356Z,4.60
2023-12-22T06:04:18.351Z,4.40
2023-12-22T06:06:46.544Z,4.30
2023-12-22T06:09:14.830Z,4.20
2023-12-22T06:11:42.917Z,4.10
2023-12-22T06:14:10.909Z,4.20
2023-12-22T06:16:40.346Z,4.10
2023-12-22T06:19:08.434Z,4.20
2023-12-22T06:21:39.573Z,4.30
2023-12-22T06:24:09.210Z,4.40
2023-12-22T06:26:37.755Z,4.50
2023-12-22T06:29:06.333Z,4.50
2023-12-22T06:31:34.880Z,4.60
2023-12-22T06:34:04.135Z,4.60
2023-12-22T06:36:32.713Z,4.60
2023-12-22T06:39:00.976Z,4.60
2023-12-22T06:41:34.168Z,4.70
2023-12-22T06:44:05.723Z,4.70
2023-12-22T06:46:35.108Z,4.70
2023-12-22T06:49:05.472Z,4.70
2023-12-22T06:51:38.405Z,4.70
2023-12-22T06:54:06.749Z,4.80
2023-12-22T06:56:36.840Z,4.80
2023-12-22T06:59:05.410Z,4.70
2023-12-22T07:01:36.264Z,4.80
2023-12-22T07:04:05.908Z,5.10
2023-12-22T07:06:36.486Z,5.20
2023-12-22T07:09:14.405Z,5.40
2023-12-22T07:11:45.598Z,5.20
2023-12-22T07:14:13.857Z,5.20
2023-12-22T07:17:33.084Z,5.30
2023-12-22T07:20:04.437Z,5.40
2023-12-22T07:22:34.510Z,5.60
2023-12-22T07:25:03.043Z,5.80
2023-12-22T07:27:32.838Z,5.90
2023-12-22T07:30:01.056Z,6.00
2023-12-22T07:32:31.271Z,6.10
2023-12-22T07:35:01.512Z,6.10
2023-12-22T07:37:32.635Z,5.90
2023-12-22T07:40:01.143Z,5.80
2023-12-22T07:42:29.980Z,5.90
2023-12-22T07:44:58.212Z,6.00
2023-12-22T07:47:27.785Z,6.20
2023-12-22T07:49:56.732Z,6.30
2023-12-22T07:52:24.977Z,6.60
2023-12-22T07:54:55.410Z,6.60
2023-12-22T07:57:24.270Z,6.80
2023-12-22T07:59:53.952Z,7.10
2023-12-22T08:02:22.767Z,6.90
2023-12-22T08:04:51.858Z,7.00
2023-12-22T08:07:20.413Z,7.00
2023-12-22T08:09:48.971Z,7.20
2023-12-22T08:12:17.684Z,7.40
2023-12-22T08:14:46.077Z,7.70
2023-12-22T08:17:14.954Z,8.00
2023-12-22T08:19:46.509Z,8.30
2023-12-22T08:23:10.024Z,8.70
2023-12-22T08:25:44.869Z,9.10
2023-12-22T08:28:14.753Z,9.70
2023-12-22T08:30:44.180Z,9.70
2023-12-22T08:33:12.813Z,9.30
2023-12-22T08:35:41.125Z,9.80
2023-12-22T08:38:10.707Z,9.60
2023-12-22T08:40:39.216Z,9.50
2023-12-22T08:43:08.080Z,9.30
2023-12-22T08:45:37.175Z,9.30
2023-12-22T08:48:09.230Z,9.40
2023-12-22T08:50:38.730Z,9.50
2023-12-22T08:53:08.156Z,9.40
2023-12-22T08:55:36.340Z,9.30
2023-12-22T08:58:06.511Z,9.30
2023-12-22T09:00:34.963Z,9.40
2023-12-22T09:03:04.154Z,9.50
2023-12-22T09:05:34.032Z,9.40
2023-12-22T09:08:02.706Z,9.60
2023-12-22T09:10:30.972Z,9.80
2023-12-22T09:13:01.611Z,10.20
2023-12-22T09:15:30.078Z,10.30
2023-12-22T09:17:59.606Z,10.40
2023-12-22T09:20:30.108Z,11.20
2023-12-22T09:22:58.345Z,11.50
2023-12-22T09:25:27.643Z,11.80
2023-12-22T09:27:55.836Z,12.20
2023-12-22T09:30:24.331Z,12.80
2023-12-22T09:32:52.526Z,13.60
2023-12-22T09:35:21.132Z,13.80
2023-12-22T09:37:49.600Z,13.30
2023-12-22T09:40:18.299Z,13.40
2023-12-22T09:42:47.803Z,12.90
2023-12-22T09:45:21.807Z,12.90
2023-12-22T09:47:51.842Z,13.10
2023-12-22T09:50:22.857Z,13.70
2023-12-22T09:52:51.463Z,14.20
2023-12-22T09:55:23.219Z,14.80
2023-12-22T09:57:53.236Z,15.20
2023-12-22T10:00:24.300Z,14.90
2023-12-22T10:02:52.745Z,14.30
2023-12-22T10:05:23.071Z,14.40
2023-12-22T10:07:52.778Z,14.90
2023-12-22T10:10:22.463Z,15.00
2023-12-22T10:12:53.358Z,15.00
2023-12-22T10:15:25.319Z,14.80
2023-12-22T10:17:54.650Z,15.20
2023-12-22T10:20:23.537Z,15.20
2023-12-22T10:22:52.073Z,15.00
2023-12-22T10:25:30.953Z,14.70
2023-12-22T10:27:59.483Z,14.80
2023-12-22T10:30:29.614Z,13.80
2023-12-22T10:32:57.732Z,13.60
2023-12-22T10:35:26.607Z,13.20
2023-12-22T10:38:00.029Z,13.20
2023-12-22T10:40:31.168Z,13.20
2023-12-22T10:43:01.956Z,13.10
2023-12-22T10:45:32.816Z,13.20
2023-12-22T10:48:03.244Z,13.20
2023-12-22T10:50:31.454Z,13.30
2023-12-22T10:53:00.563Z,13.30
2023-12-22T10:55:29.151Z,13.20
2023-12-22T10:57:57.689Z,13.30
2023-12-22T11:03:03.879Z,13.30
2023-12-22T11:05:35.068Z,13.30
2023-12-22T11:08:04.577Z,13.40
2023-12-22T11:10:33.980Z,13.50
2023-12-22T11:13:03.437Z,13.60
2023-12-22T11:15:32.112Z,13.70
2023-12-22T11:18:03.506Z,13.50
2023-12-22T11:20:34.210Z,13.70
2023-12-22T11:23:05.570Z,13.60
2023-12-22T11:25:36.413Z,13.70
2023-12-22T11:28:08.238Z,13.70
2023-12-22T11:30:38.512Z,13.80
2023-12-22T11:33:07.505Z,13.70
2023-12-22T11:35:37.212Z,13.70
2023-12-22T11:38:07.281Z,13.70
2023-12-22T11:40:36.730Z,13.80
2023-12-22T11:43:05.359Z,13.80
2023-12-22T11:45:35.996Z,13.80
2023-12-22T11:48:11.153Z,13.80
2023-12-22T11:50:40.349Z,13.80
2023-12-22T11:53:36.089Z,13.90
2023-12-22T11:56:07.293Z,14.00
2023-12-22T11:58:56.057Z,14.00
2023-12-22T12:01:29.587Z,14.10
2023-12-22T12:04:05.728Z,14.10
2023-12-22T12:06:38.500Z,14.10
2023-12-22T12:09:12.409Z,14.10
2023-12-22T12:11:56.577Z,14.10
2023-12-22T12:14:30.787Z,14.20
2023-12-22T12:17:09.643Z,14.20
2023-12-22T12:19:44.905Z,14.20
2023-12-22T12:22:14.591Z,14.30
2023-12-22T12:24:44.024Z,14.20
2023-12-22T12:27:18.502Z,14.30
2023-12-22T12:29:46.743Z,14.20
2023-12-22T12:32:16.406Z,14.20
2023-12-22T12:34:45.329Z,14.30
2023-12-22T12:37:15.257Z,14.30
2023-12-22T12:39:45.104Z,14.30
2023-12-22T12:42:18.033Z,14.40
2023-12-22T12:44:49.027Z,14.40
2023-12-22T12:47:19.384Z,14.40
2023-12-22T12:49:47.715Z,14.40
2023-12-22T12:52:16.775Z,14.50
2023-12-22T12:54:45.311Z,14.50
2023-12-22T12:57:17.711Z,14.50
2023-12-22T12:59:50.753Z,14.50
2023-12-22T13:02:22.172Z,14.50
2023-12-22T13:04:50.731Z,14.50
2023-12-22T13:07:27.360Z,14.50
2023-12-22T13:09:57.863Z,14.50
2023-12-22T13:12:26.926Z,14.50
2023-12-22T13:14:55.482Z,14.60
2023-12-22T13:17:23.744Z,14.70
2023-12-22T13:19:52.974Z,14.70
2023-12-22T13:22:21.609Z,14.80
2023-12-22T13:25:01.555Z,14.80
2023-12-22T13:27:32.322Z,14.70
2023-12-22T13:30:00.576Z,14.70
2023-12-22T13:32:29.734Z,14.70
2023-12-22T13:34:59.013Z,14.70
2023-12-22T13:37:32.221Z,14.70
2023-12-22T13:40:01.260Z,14.70
2023-12-22T13:42:30.755Z,14.70
2023-12-22T13:44:58.933Z,14.70
2023-12-22T13:47:28.819Z,14.70
2023-12-22T13:49:59.263Z,14.70
2023-12-22T13:52:28.526Z,14.70
2023-12-22T13:54:59.796Z,14.70
2023-12-22T13:57:28.985Z,14.60
2023-12-22T13:59:57.519Z,14.60
2023-12-22T14:03:23.146Z,14.60
2023-12-22T14:05:53.681Z,14.60
2023-12-22T14:08:21.767Z,14.50
2023-12-22T14:10:50.339Z,14.50
2023-12-22T14:13:18.770Z,14.50
2023-12-22T14:15:47.236Z,14.40
2023-12-22T14:18:15.330Z,14.40
2023-12-22T14:20:44.588Z,14.30
2023-12-22T14:23:17.987Z,14.30
2023-12-22T14:25:46.546Z,14.30
2023-12-22T14:28:14.775Z,14.30
2023-12-22T14:30:42.914Z,14.20
2023-12-22T14:33:12.560Z,14.20
2023-12-22T14:35:40.830Z,14.20
2023-12-22T14:38:09.256Z,14.20
2023-12-22T14:40:37.491Z,14.20
2023-12-22T14:43:06.056Z,14.10
2023-12-22T14:46:48.926Z,14.10
2023-12-22T14:49:16.976Z,14.00
2023-12-22T14:51:46.937Z,14.00
2023-12-22T14:54:15.146Z,14.00
2023-12-22T14:56:43.643Z,14.00
2023-12-22T14:59:12.428Z,14.00
2023-12-22T15:01:40.532Z,13.90
2023-12-22T15:04:09.615Z,13.80
2023-12-22T15:06:42.221Z,13.80
2023-12-22T15:09:11.360Z,13.70
2023-12-22T15:11:46.682Z,13.60
2023-12-22T15:14:14.828Z,13.60
2023-12-22T15:16:46.025Z,13.60
2023-12-22T15:19:17.699Z,13.50
2023-12-22T15:21:47.513Z,13.40
2023-12-22T15:24:17.444Z,13.30
2023-12-22T15:26:53.144Z,13.20
2023-12-22T15:29:23.086Z,13.00
2023-12-22T15:31:53.657Z,12.90
2023-12-22T15:34:21.973Z,12.80
2023-12-22T15:36:54.113Z,12.70
2023-12-22T15:39:22.284Z,12.70
2023-12-22T15:41:50.719Z,12.60
2023-12-22T15:44:21.459Z,12.50
2023-12-22T15:46:49.658Z,12.50
2023-12-22T15:49:17.843Z,12.40
2023-12-22T15:51:47.269Z,12.40
2023-12-22T15:54:18.602Z,12.30
2023-12-22T15:56:49.821Z,12.20
2023-12-22T15:59:18.997Z,12.10
2023-12-22T16:01:48.240Z,11.90
2023-12-22T16:04:16.384Z,11.70
2023-12-22T16:06:44.857Z,11.60
2023-12-22T16:09:14.909Z,11.30
2023-12-22T16:11:43.417Z,10.90
2023-12-22T16:14:20.639Z,10.60
2023-12-22T16:16:48.930Z,10.50
2023-12-22T16:19:17.226Z,10.40
2023-12-22T16:21:46.339Z,10.70
2023-12-22T16:24:17.159Z,10.70
2023-12-22T16:26:45.626Z,10.60
2023-12-22T16:29:14.256Z,10.50
2023-12-22T16:31:42.903Z,10.40
2023-12-22T16:34:11.058Z,10.30
2023-12-22T16:36:47.176Z,10.10
2023-12-22T16:39:15.312Z,10.10
2023-12-22T16:41:43.509Z,10.00
2023-12-22T16:44:11.749Z,9.90
2023-12-22T16:46:42.138Z,9.80
2023-12-22T16:49:10.804Z,9.70
2023-12-22T16:51:39.162Z,9.70
2023-12-22T16:54:07.821Z,9.70
2023-12-22T16:56:37.511Z,9.60
2023-12-22T16:59:05.614Z,9.50
2023-12-22T17:01:40.002Z,9.40
2023-12-22T17:04:15.142Z,9.30
2023-12-22T17:06:53.691Z,9.20
2023-12-22T17:09:26.269Z,9.10
2023-12-22T17:11:57.105Z,9.10
2023-12-22T17:14:25.243Z,9.00
2023-12-22T17:16:53.460Z,9.00
2023-12-22T17:19:24.993Z,8.90
2023-12-22T17:21:53.190Z,8.90
2023-12-22T17:24:23.500Z,9.00
2023-12-22T17:26:51.662Z,8.70
2023-12-22T17:29:19.994Z,8.60
2023-12-22T17:32:42.509Z,8.60
2023-12-22T17:35:10.848Z,8.60
2023-12-22T17:37:39.099Z,8.80
2023-12-22T17:40:07.885Z,8.70
2023-12-22T17:42:36.679Z,8.60
2023-12-22T17:45:05.210Z,8.60
2023-12-22T17:47:34.660Z,8.60
2023-12-22T17:50:02.994Z,8.50
2023-12-22T17:52:32.006Z,8.40
2023-12-22T17:55:01.526Z,8.40
2023-12-22T17:57:29.829Z,8.10
2023-12-22T17:59:58.130Z,8.30
2023-12-22T18:02:26.300Z,8.20
2023-12-22T18:04:54.587Z,8.00
2023-12-22T18:07:22.737Z,8.00
2023-12-22T18:09:50.789Z,8.10
2023-12-22T18:12:19.111Z,8.00
2023-12-22T18:14:47.687Z,7.60
2023-12-22T18:17:15.826Z,7.50
2023-12-22T18:19:44.983Z,7.60
2023-12-22T18:22:13.489Z,7.60
2023-12-22T18:24:41.619Z,7.70
2023-12-22T18:27:09.753Z,7.60
2023-12-22T18:29:38.008Z,7.60
2023-12-22T18:32:06.437Z,7.50
2023-12-22T18:34:34.805Z,7.40
2023-12-22T18:37:03.106Z,7.30
2023-12-22T18:39:31.334Z,7.10
2023-12-22T18:42:01.110Z,7.00
2023-12-22T18:44:29.279Z,7.00
2023-12-22T18:46:57.331Z,6.90
2023-12-22T18:49:25.484Z,7.10
2023-12-22T18:51:53.739Z,7.10
2023-12-22T18:54:23.425Z,7.00
2023-12-22T18:56:51.568Z,6.90
2023-12-22T18:59:19.685Z,6.80
2023-12-22T19:02:00.680Z,6.80
2023-12-22T19:04:37.925Z,6.80
2023-12-22T19:07:06.302Z,6.70
2023-12-22T19:09:34.422Z,6.50
2023-12-22T19:12:02.637Z,6.40
2023-12-22T19:14:31.821Z,6.30
2023-12-22T19:17:00.022Z,6.40
2023-12-22T19:19:28.209Z,6.30
2023-12-22T19:21:56.361Z,6.30
2023-12-22T19:24:24.505Z,6.30
2023-12-22T19:26:52.642Z,6.40
2023-12-22T19:29:20.709Z,6.40
2023-12-22T19:31:48.805Z,6.40
2023-12-22T19:34:19.411Z,6.40
2023-12-22T19:36:47.558Z,6.30
2023-12-22T19:39:15.958Z,6.20
2023-12-22T19:41:45.093Z,6.00
2023-12-22T19:44:13.389Z,6.00
2023-12-22T19:46:41.536Z,6.00
2023-12-22T19:49:10.837Z,6.10
2023-12-22T19:51:39.046Z,6.50
2023-12-22T19:54:07.558Z,6.70
2023-12-22T19:56:36.857Z,6.60
2023-12-22T19:59:05.698Z,6.70
2023-12-22T20:01:34.519Z,6.50
2023-12-22T20:04:03.224Z,6.50
2023-12-22T20:06:33.925Z,6.40
2023-12-22T20:09:01.969Z,6.30
2023-12-22T20:11:33.730Z,6.30
2023-12-22T20:14:02.958Z,6.20
2023-12-22T20:16:31.146Z,6.20
2023-12-22T20:19:00.804Z,6.20
2023-12-22T20:21:29.264Z,6.30
2023-12-22T20:23:57.375Z,6.40
2023-12-22T20:26:25.626Z,6.40
2023-12-22T20:28:54.490Z,6.30
2023-12-22T20:31:23.097Z,6.30
2023-12-22T20:33:51.252Z,6.20
2023-12-22T20:36:19.370Z,6.10
2023-12-22T20:38:47.480Z,5.90
2023-12-22T20:41:16.045Z,5.90
2023-12-22T20:43:44.196Z,5.80
2023-12-22T20:46:12.698Z,5.70
2023-12-22T20:48:42.509Z,5.60
2023-12-22T20:51:11.471Z,5.50
2023-12-22T20:53:39.717Z,5.50
2023-12-22T20:56:21.330Z,5.50
2023-12-22T20:58:50.023Z,5.50
2023-12-22T21:01:19.147Z,5.50
2023-12-22T21:03:47.223Z,5.60
2023-12-22T21:06:15.343Z,5.50
2023-12-22T21:08:43.485Z,5.40
2023-12-22T21:11:11.731Z,5.40
2023-12-22T21:13:44.036Z,5.50
2023-12-22T21:16:12.296Z,5.40
2023-12-22T21:18:40.690Z,5.70
2023-12-22T21:21:10.942Z,5.90
2023-12-22T21:23:41.429Z,6.00
2023-12-22T21:26:20.593Z,5.90
2023-12-22T21:28:48.988Z,5.80
2023-12-22T21:31:17.374Z,5.80
2023-12-22T21:33:46.249Z,5.80
2023-12-22T21:36:22.612Z,5.80
2023-12-22T21:38:51.861Z,5.70
2023-12-22T21:41:22.850Z,5.70
2023-12-22T21:43:51.354Z,5.80
2023-12-22T21:46:20.172Z,5.80
2023-12-22T21:48:49.448Z,5.90
2023-12-22T21:51:17.641Z,6.00
2023-12-22T21:53:47.212Z,6.00
2023-12-22T21:56:22.849Z,5.80
2023-12-22T21:58:51.001Z,5.60
2023-12-22T22:01:19.441Z,5.60
2023-12-22T22:03:47.821Z,5.60
2023-12-22T22:06:15.900Z,5.50
2023-12-22T22:08:44.559Z,5.60
2023-12-22T22:11:13.231Z,5.60
2023-12-22T22:13:43.470Z,5.60
2023-12-22T22:16:11.574Z,5.60
2023-12-22T22:18:39.723Z,5.60
2023-12-22T22:21:08.125Z,5.70
2023-12-22T22:23:36.318Z,5.80
2023-12-22T22:26:06.129Z,5.80
2023-12-22T22:28:35.509Z,5.80
2023-12-22T22:31:03.940Z,5.80
2023-12-22T22:33:33.545Z,5.60
2023-12-22T22:36:02.465Z,5.50
2023-12-22T22:38:31.205Z,5.50
2023-12-22T22:41:00.320Z,5.60
2023-12-22T22:43:28.528Z,5.60
2023-12-22T22:45:56.766Z,5.60
2023-12-22T22:48:25.388Z,5.60
2023-12-22T22:50:53.934Z,5.60
2023-12-22T22:53:22.079Z,5.60
2023-12-22T22:55:51.016Z,5.50
2023-12-22T22:58:19.725Z,5.30
2023-12-22T23:00:47.859Z,5.30
2023-12-22T23:03:16.033Z,5.30
2023-12-22T23:05:44.714Z,5.20
2023-12-22T23:08:14.673Z,5.10
2023-12-22T23:10:42.913Z,5.00
2023-12-22T23:13:11.408Z,5.00
2023-12-22T23:15:40.195Z,5.10
2023-12-22T23:18:09.377Z,5.10
2023-12-22T23:20:39.719Z,5.10
2023-12-22T23:23:08.113Z,5.10
2023-12-22T23:25:36.711Z,5.10
2023-12-22T23:28:05.065Z,5.10
2023-12-22T23:30:33.484Z,5.00
2023-12-22T23:33:01.689Z,5.00
2023-12-22T23:35:30.092Z,4.90
2023-12-22T23:37:58.646Z,4.90
2023-12-22T23:40:26.677Z,4.90
2023-12-22T23:42:55.038Z,4.80
2023-12-22T23:45:23.548Z,4.50
2023-12-22T23:47:51.831Z,4.50
2023-12-22T23:50:20.321Z,4.60
2023-12-22T23:52:48.787Z,4.70
2023-12-22T23:55:16.963Z,4.70
2023-12-22T23:57:44.968Z,4.60
